Time;durP1;ratioP1;P1;durP2;ratioP2;P2;SDS_P1;SDS_P2;PMS_P1;PMS_P2;Temp;Humidity;BMP_temperature;BMP_pressure;BME280_temperature;BME280_humidity;BME280_pressure;Samples;Min_cycle;Max_cycle;Signal;HPM_P1;HPM_P2
2021/01/10 00:09:18;;;;;;;0.98;0.55;;;8.70;61.40;;;;;;20750826;28;20129;-70
2021/01/10 00:19:18;;;;;;;0.40;0.40;;;8.70;61.40;;;;;;20654958;28;20388;-69
2021/01/10 00:29:19;;;;;;;2.75;0.80;;;8.70;61.40;;;;;;20696589;28;20296;-70
2021/01/10 00:39:19;;;;;;;2.40;1.30;;;8.70;61.40;;;;;;20727960;28;20033;-69
2021/01/10 00:49:20;;;;;;;0.75;0.55;;;8.70;61.40;;;;;;20693522;28;20125;-69
2021/01/10 00:59:20;;;;;;;1.33;0.73;;;8.70;61.40;;;;;;20685531;28;20053;-68
2021/01/10 01:09:22;;;;;;;1.55;0.88;;;8.60;62.00;;;;;;20666805;28;20031;-69
2021/01/10 01:19:22;;;;;;;1.52;1.08;;;8.70;61.40;;;;;;20707799;28;20045;-67
2021/01/10 01:29:23;;;;;;;1.88;1.00;;;8.70;61.40;;;;;;20688718;28;20125;-68
2021/01/10 01:39:24;;;;;;;3.17;1.13;;;8.70;61.30;;;;;;20687533;28;20361;-68
2021/01/10 01:49:24;;;;;;;0.75;0.43;;;8.60;61.30;;;;;;20712321;28;20296;-70
2021/01/10 01:59:25;;;;;;;1.30;0.60;;;8.60;61.30;;;;;;20722244;28;20042;-69
2021/01/10 02:09:25;;;;;;;1.35;1.23;;;8.60;61.20;;;;;;20697434;28;20025;-70
2021/01/10 02:19:32;;;;;;;1.98;1.05;;;8.60;61.20;;;;;;20691414;28;20068;-68
2021/01/10 02:29:34;;;;;;;0.97;0.67;;;8.60;61.20;;;;;;20684134;28;20030;-68
2021/01/10 02:39:51;;;;;;;1.58;0.77;;;8.60;61.80;;;;;;20678205;28;20438;-68
2021/01/10 02:49:52;;;;;;;0.43;0.40;;;8.60;61.10;;;;;;20694444;28;20499;-68
2021/01/10 02:59:52;;;;;;;1.63;0.55;;;8.60;61.10;;;;;;20668395;28;20034;-69
2021/01/10 03:09:54;;;;;;;1.83;1.05;;;8.60;60.90;;;;;;20668919;28;20168;-69
2021/01/10 03:19:54;;;;;;;1.30;0.40;;;8.60;61.60;;;;;;20708173;28;20034;-67
2021/01/10 03:29:55;;;;;;;2.55;1.13;;;8.60;60.80;;;;;;20696162;28;20057;-68
2021/01/10 03:39:56;;;;;;;1.88;0.65;;;8.60;60.80;;;;;;20689906;28;20072;-68
2021/01/10 03:49:56;;;;;;;0.80;0.40;;;8.60;60.70;;;;;;20694173;28;20033;-67
2021/01/10 03:59:57;;;;;;;1.05;0.30;;;8.60;60.70;;;;;;20665698;28;20392;-67
2021/01/10 04:09:58;;;;;;;0.63;0.50;;;8.60;60.70;;;;;;20741098;28;20962;-68
2021/01/10 04:19:58;;;;;;;2.63;0.88;;;8.60;60.70;;;;;;20708133;28;20417;-69
2021/01/10 04:30:03;;;;;;;1.35;0.75;;;8.60;60.60;;;;;;20674123;28;20091;-67
2021/01/10 04:40:05;;;;;;;1.55;0.82;;;8.50;60.60;;;;;;20701691;28;20049;-67
2021/01/10 04:50:06;;;;;;;2.05;0.80;;;8.60;60.60;;;;;;20704915;28;20056;-68
2021/01/10 05:00:07;;;;;;;1.25;0.90;;;8.60;60.70;;;;;;20698193;28;20030;-67
2021/01/10 05:10:08;;;;;;;2.08;0.85;;;8.60;60.60;;;;;;20699254;28;20037;-68
2021/01/10 05:20:09;;;;;;;0.68;0.50;;;8.60;60.90;;;;;;20683368;28;20037;-67
2021/01/10 05:30:11;;;;;;;0.52;0.47;;;8.70;61.00;;;;;;20670900;28;20481;-67
2021/01/10 05:40:12;;;;;;;0.63;0.40;;;9.00;60.80;;;;;;20690904;28;20041;-68
2021/01/10 05:50:13;;;;;;;1.80;0.90;;;9.20;60.30;;;;;;20696414;28;20491;-68
2021/01/10 06:00:14;;;;;;;1.35;0.88;;;9.20;59.60;;;;;;20682954;28;20045;-68
2021/01/10 06:10:26;;;;;;;1.10;0.55;;;9.30;59.20;;;;;;20670867;28;20095;-68
2021/01/10 06:20:28;;;;;;;2.33;1.00;;;9.20;58.70;;;;;;20715592;28;20052;-68
2021/01/10 06:30:33;;;;;;;1.13;0.70;;;9.10;58.60;;;;;;20698089;28;20037;-68
2021/01/10 06:40:39;;;;;;;1.25;0.52;;;9.10;58.90;;;;;;20686799;28;20061;-67
2021/01/10 06:50:44;;;;;;;1.52;0.93;;;8.90;59.10;;;;;;20710563;28;20026;-68
2021/01/10 07:00:55;;;;;;;1.48;0.90;;;8.80;59.30;;;;;;20694790;28;20034;-68
2021/01/10 07:10:56;;;;;;;1.23;0.88;;;8.80;59.60;;;;;;20695834;28;20045;-68
2021/01/10 07:20:56;;;;;;;0.35;0.32;;;8.70;59.80;;;;;;20687978;28;20034;-67
2021/01/10 07:31:14;;;;;;;2.90;0.70;;;8.70;60.00;;;;;;20700228;28;20141;-67
2021/01/10 07:41:28;;;;;;;0.73;0.57;;;8.70;60.20;;;;;;20668113;28;20448;-69
2021/01/10 07:51:28;;;;;;;0.77;0.77;;;8.70;60.30;;;;;;20697469;28;20030;-69
2021/01/10 08:01:48;;;;;;;1.05;0.77;;;8.70;60.40;;;;;;20708386;28;20517;-68
2021/01/10 08:11:53;;;;;;;1.27;0.85;;;8.70;60.40;;;;;;20717346;28;20506;-69
2021/01/10 08:21:53;;;;;;;1.75;0.88;;;8.70;60.50;;;;;;20688919;28;20041;-68
2021/01/10 08:31:54;;;;;;;0.98;0.55;;;8.70;60.50;;;;;;20702808;28;20041;-67
2021/01/10 08:41:55;;;;;;;0.43;0.32;;;8.70;60.50;;;;;;20690717;28;20116;-69
2021/01/10 08:51:55;;;;;;;1.25;1.08;;;8.70;60.50;;;;;;20703490;28;20498;-69
2021/01/10 09:02:06;;;;;;;4.35;0.90;;;8.70;60.50;;;;;;20696626;28;20033;-66
2021/01/10 09:12:17;;;;;;;1.00;0.63;;;8.70;60.50;;;;;;20679351;28;20061;-66
2021/01/10 09:22:17;;;;;;;4.45;1.58;;;8.70;60.80;;;;;;21099401;22;20120;-69
2021/01/10 09:32:21;;;;;;;3.88;1.23;;;9.00;61.20;;;;;;20711028;28;20038;-67
2021/01/10 09:42:22;;;;;;;2.97;1.67;;;9.10;60.50;;;;;;20695464;28;20136;-68
2021/01/10 09:52:23;;;;;;;5.65;1.38;;;9.20;59.80;;;;;;20693070;28;20125;-65
2021/01/10 10:02:34;;;;;;;5.63;1.52;;;9.20;59.50;;;;;;20696927;28;20030;-66
2021/01/10 10:12:34;;;;;;;2.10;1.13;;;9.10;59.50;;;;;;20686445;28;20046;-68
2021/01/10 10:22:36;;;;;;;1.55;0.95;;;9.00;59.60;;;;;;20662698;28;20036;-67
2021/01/10 10:32:36;;;;;;;3.47;1.73;;;8.90;59.80;;;;;;20683912;28;20292;-67
2021/01/10 10:42:37;;;;;;;3.20;1.02;;;8.90;60.00;;;;;;20673627;28;20037;-69
2021/01/10 10:52:37;;;;;;;2.55;1.48;;;8.80;60.20;;;;;;20670623;28;20307;-69
2021/01/10 11:02:38;;;;;;;1.13;0.82;;;8.80;60.50;;;;;;20675252;28;20266;-70
2021/01/10 11:12:39;;;;;;;1.10;0.67;;;8.80;60.80;;;;;;20694975;28;20038;-70
2021/01/10 11:22:41;;;;;;;2.57;0.83;;;8.80;61.00;;;;;;20688378;28;20297;-68
2021/01/10 11:32:41;;;;;;;3.40;0.75;;;8.80;61.10;;;;;;20687028;28;20293;-70
2021/01/10 11:42:42;;;;;;;2.90;0.70;;;8.70;61.10;;;;;;20705580;28;20120;-69
2021/01/10 11:52:42;;;;;;;1.77;1.02;;;8.80;61.20;;;;;;20729274;28;20041;-67
2021/01/10 12:02:43;;;;;;;2.20;1.10;;;8.70;61.20;;;;;;20723704;28;20109;-70
2021/01/10 12:12:43;;;;;;;1.48;0.95;;;8.80;61.30;;;;;;20691788;28;20477;-70
2021/01/10 12:22:44;;;;;;;3.47;0.70;;;8.70;61.30;;;;;;20713799;28;20050;-70
2021/01/10 12:32:44;;;;;;;3.00;1.38;;;8.70;61.40;;;;;;20680763;28;20729;-69
2021/01/10 12:42:47;;;;;;;2.88;1.27;;;8.70;61.40;;;;;;20682829;28;20022;-69
2021/01/10 12:52:48;;;;;;;3.22;1.27;;;8.70;61.50;;;;;;20677560;28;20073;-69
2021/01/10 13:02:49;;;;;;;2.40;0.75;;;8.70;61.50;;;;;;20682976;28;20068;-69
2021/01/10 13:12:50;;;;;;;1.55;0.90;;;8.70;61.60;;;;;;20708878;28;20069;-70
2021/01/10 13:22:51;;;;;;;1.73;0.90;;;8.70;61.60;;;;;;20692773;28;20033;-70
2021/01/10 13:32:51;;;;;;;4.13;1.45;;;8.70;61.60;;;;;;20690841;28;20581;-71
2021/01/10 13:42:52;;;;;;;1.77;0.98;;;8.70;61.60;;;;;;20694945;28;20472;-69
2021/01/10 13:52:52;;;;;;;3.58;1.83;;;8.80;61.70;;;;;;20693051;28;20073;-68
2021/01/10 14:02:54;;;;;;;2.08;0.88;;;8.80;62.10;;;;;;20701325;28;20036;-69
2021/01/10 14:12:55;;;;;;;1.85;0.85;;;9.00;62.30;;;;;;20688364;28;20106;-69
2021/01/10 14:22:56;;;;;;;5.50;1.58;;;9.10;61.90;;;;;;20701097;28;20057;-68
2021/01/10 14:32:58;;;;;;;2.30;1.40;;;9.20;61.40;;;;;;20705799;28;20065;-68
2021/01/10 14:42:58;;;;;;;1.88;0.93;;;9.30;60.80;;;;;;20662873;28;20538;-68
2021/01/10 14:52:59;;;;;;;1.02;0.80;;;9.20;60.60;;;;;;20730509;28;20034;-69
2021/01/10 15:03:00;;;;;;;0.68;0.50;;;9.10;60.70;;;;;;20699678;28;20076;-68
2021/01/10 15:13:00;;;;;;;2.58;1.13;;;9.00;60.90;;;;;;20651424;28;20117;-70
2021/01/10 15:23:03;;;;;;;2.17;1.13;;;8.90;61.10;;;;;;20711733;28;20394;-69
2021/01/10 15:33:04;;;;;;;3.22;1.15;;;8.90;62.00;;;;;;20721945;28;20038;-68
2021/01/10 15:43:05;;;;;;;3.05;1.20;;;8.80;61.50;;;;;;20661760;28;20493;-68
2021/01/10 15:53:05;;;;;;;3.40;0.80;;;8.80;61.70;;;;;;20707340;28;20120;-71
2021/01/10 16:03:06;;;;;;;1.75;0.77;;;8.80;61.90;;;;;;20698315;28;20037;-68
2021/01/10 16:13:07;;;;;;;1.38;0.88;;;8.70;61.80;;;;;;20728534;28;20124;-69
2021/01/10 16:23:07;;;;;;;9.13;1.23;;;8.70;61.80;;;;;;20683699;28;20399;-66
2021/01/10 16:33:08;;;;;;;1.40;0.75;;;8.90;62.40;;;;;;20724113;28;20395;-72
2021/01/10 16:43:12;;;;;;;2.70;1.08;;;9.00;61.60;;;;;;20657915;28;20047;-67
2021/01/10 16:53:14;;;;;;;3.28;1.35;;;8.90;61.90;;;;;;20683443;28;20035;-72
2021/01/10 17:03:14;;;;;;;5.00;1.02;;;8.80;61.90;;;;;;20666129;28;20455;-71
2021/01/10 17:13:15;;;;;;;1.35;0.77;;;8.80;62.00;;;;;;20717499;28;20042;-69
2021/01/10 17:23:15;;;;;;;3.15;1.50;;;8.80;62.00;;;;;;20736611;28;20121;-69
2021/01/10 17:33:16;;;;;;;2.30;1.42;;;8.80;62.20;;;;;;20738799;28;20045;-69
2021/01/10 17:43:17;;;;;;;1.63;1.02;;;8.70;62.10;;;;;;20701038;28;20108;-73
2021/01/10 17:53:18;;;;;;;2.08;1.23;;;8.70;62.10;;;;;;20695922;28;20048;-70
2021/01/10 18:03:18;;;;;;;2.92;1.20;;;8.70;62.20;;;;;;20687705;28;20440;-69
2021/01/10 18:13:19;;;;;;;2.38;0.63;;;8.70;62.20;;;;;;20718749;28;20523;-69
2021/01/10 18:23:19;;;;;;;3.15;0.95;;;8.70;62.20;;;;;;20697566;28;20499;-71
2021/01/10 18:33:20;;;;;;;3.20;1.13;;;8.70;62.20;;;;;;20659555;28;20053;-72
2021/01/10 18:43:25;;;;;;;1.92;1.23;;;8.70;62.20;;;;;;20675784;28;20453;-70
2021/01/10 18:53:26;;;;;;;0.57;0.50;;;8.70;62.20;;;;;;20707866;28;20061;-68
2021/01/10 19:03:26;;;;;;;2.50;1.02;;;8.60;62.10;;;;;;20687362;28;20460;-70
2021/01/10 19:13:27;;;;;;;1.73;0.83;;;8.60;62.10;;;;;;20670023;28;20297;-70
2021/01/10 19:23:28;;;;;;;2.08;1.40;;;8.60;62.10;;;;;;20733081;28;20359;-69
2021/01/10 19:33:30;;;;;;;3.53;1.30;;;8.70;62.10;;;;;;20682178;28;20085;-69
2021/01/10 19:43:31;;;;;;;2.90;1.40;;;8.60;62.00;;;;;;20676667;28;20030;-70
2021/01/10 19:53:31;;;;;;;1.38;0.73;;;8.60;62.00;;;;;;20697293;28;20041;-69
2021/01/10 20:03:32;;;;;;;1.20;1.00;;;8.60;62.00;;;;;;20673286;28;20026;-68
2021/01/10 20:13:32;;;;;;;2.38;1.80;;;8.60;62.00;;;;;;20697341;28;20320;-70
2021/01/10 20:23:33;;;;;;;1.97;1.13;;;8.60;62.00;;;;;;20688994;28;20081;-70
2021/01/10 20:33:34;;;;;;;4.10;1.40;;;8.60;61.90;;;;;;20671852;28;20332;-69
2021/01/10 20:43:34;;;;;;;2.53;1.42;;;8.60;62.10;;;;;;20690281;28;20049;-69
2021/01/10 20:53:35;;;;;;;1.00;0.52;;;8.60;62.00;;;;;;20694236;28;20030;-69
2021/01/10 21:03:36;;;;;;;1.08;0.35;;;8.60;62.00;;;;;;20685576;28;20284;-71
2021/01/10 21:13:36;;;;;;;0.65;0.50;;;8.60;61.80;;;;;;20709207;28;20528;-69
2021/01/10 21:23:37;;;;;;;1.10;0.70;;;8.60;61.90;;;;;;20668487;28;20155;-69
2021/01/10 21:33:40;;;;;;;4.00;0.98;;;8.50;61.80;;;;;;20684373;28;20041;-69
2021/01/10 21:43:42;;;;;;;0.80;0.55;;;8.50;61.80;;;;;;20688227;28;20092;-69
2021/01/10 21:53:42;;;;;;;4.05;2.00;;;8.60;61.90;;;;;;20680163;28;20081;-69
2021/01/10 22:03:43;;;;;;;2.53;1.48;;;8.60;61.90;;;;;;20658930;28;20057;-69
2021/01/10 22:13:45;;;;;;;0.88;0.47;;;8.60;61.90;;;;;;20681153;28;20042;-71
2021/01/10 22:23:46;;;;;;;0.80;0.50;;;8.50;61.90;;;;;;20661865;28;20494;-69
2021/01/10 22:33:46;;;;;;;1.23;0.85;;;8.50;62.00;;;;;;20661105;28;20037;-70
2021/01/10 22:43:47;;;;;;;1.90;0.80;;;8.60;62.00;;;;;;20706304;28;20091;-69
2021/01/10 22:53:48;;;;;;;2.35;0.85;;;8.50;61.90;;;;;;20697171;28;20641;-70
2021/01/10 23:03:48;;;;;;;1.40;0.85;;;8.50;62.00;;;;;;20672466;28;20033;-70
2021/01/10 23:13:49;;;;;;;1.85;1.02;;;8.50;62.10;;;;;;20679061;28;20041;-69
2021/01/10 23:23:52;;;;;;;1.63;0.98;;;8.50;62.10;;;;;;20694412;28;20136;-70
2021/01/10 23:33:52;;;;;;;1.42;0.63;;;8.50;62.10;;;;;;20708619;28;20033;-69
2021/01/10 23:43:54;;;;;;;1.05;0.70;;;8.50;62.10;;;;;;20715538;28;20033;-69
2021/01/10 23:53:54;;;;;;;1.23;0.68;;;8.50;62.10;;;;;;20693320;28;20396;-70
